Time;durP1;ratioP1;P1;durP2;ratioP2;P2;SDS_P1;SDS_P2;PMS_P1;PMS_P2;Temp;Humidity;BMP_temperature;BMP_pressure;BME280_temperature;BME280_humidity;BME280_pressure;Samples;Min_cycle;Max_cycle;Signal;HPM_P1;HPM_P2
2023/09/20 00:00:27;;;;;;;2.20;0.90;;;;;;;18.58;100.00;99957.43;104732;1256;72704;-51
2023/09/20 00:02:55;;;;;;;0.90;0.80;;;;;;;18.58;100.00;99957.29;104682;1258;60362;-52
2023/09/20 00:05:22;;;;;;;5.50;1.10;;;;;;;18.58;100.00;99962.37;104798;1262;59790;-50
2023/09/20 00:07:56;;;;;;;2.40;0.80;;;;;;;18.57;100.00;99964.73;106110;1255;73487;-52
2023/09/20 00:10:23;;;;;;;4.10;0.70;;;;;;;18.58;100.00;99965.84;104684;1262;65650;-52
2023/09/20 00:12:51;;;;;;;0.90;0.90;;;;;;;18.58;100.00;99968.34;104778;1257;72591;-52
2023/09/20 00:15:18;;;;;;;2.60;0.80;;;;;;;18.59;100.00;99967.58;104719;1259;59732;-51
2023/09/20 00:17:46;;;;;;;4.30;0.80;;;;;;;18.60;100.00;99971.84;104580;1257;59995;-51
2023/09/20 00:20:13;;;;;;;1.50;0.70;;;;;;;18.60;100.00;99973.09;104788;1260;71938;-53
2023/09/20 00:22:42;;;;;;;5.20;1.10;;;;;;;18.62;100.00;99976.42;104709;1258;65878;-51
2023/09/20 00:25:11;;;;;;;1.00;0.90;;;;;;;18.63;100.00;99981.02;104538;1262;71855;-51
2023/09/20 00:27:39;;;;;;;7.10;0.90;;;;;;;18.64;100.00;99978.21;104647;1256;60545;-51
2023/09/20 00:30:14;;;;;;;2.30;0.80;;;;;;;18.65;100.00;99979.59;105418;1257;60408;-52
2023/09/20 00:32:42;;;;;;;3.00;1.00;;;;;;;18.66;100.00;99982.78;104853;1256;72997;-52
2023/09/20 00:35:11;;;;;;;2.50;0.80;;;;;;;18.67;100.00;99982.70;105667;1260;66972;-53
2023/09/20 00:37:42;;;;;;;1.10;0.80;;;;;;;18.68;100.00;99981.34;104559;1256;71486;-52
2023/09/20 00:40:15;;;;;;;2.40;0.90;;;;;;;18.69;100.00;99982.56;104654;1257;59608;-52
2023/09/20 00:42:45;;;;;;;2.40;0.90;;;;;;;18.69;100.00;99981.45;105317;1262;59222;-51
2023/09/20 00:45:13;;;;;;;0.80;0.70;;;;;;;18.70;100.00;99981.59;105366;1257;71863;-52
2023/09/20 00:47:47;;;;;;;3.30;0.80;;;;;;;18.70;100.00;99984.48;104551;1256;68752;-51
2023/09/20 00:50:15;;;;;;;;;;;;;;;18.71;100.00;99986.64;105110;1257;71462;-52
2023/09/20 00:52:43;;;;;;;3.40;1.10;;;;;;;18.70;100.00;99986.70;104722;1257;60597;-51
2023/09/20 00:55:15;;;;;;;4.20;1.80;;;;;;;18.69;100.00;99986.55;104937;1256;62236;-51
2023/09/20 00:57:47;;;;;;;2.30;1.50;;;;;;;18.68;100.00;99986.09;104495;1257;74205;-51
2023/09/20 01:00:21;;;;;;;2.60;1.40;;;;;;;18.68;100.00;99991.18;105035;1257;67428;-52
2023/09/20 01:02:50;;;;;;;1.60;1.50;;;;;;;18.68;100.00;99999.20;104301;1258;71456;-52
2023/09/20 01:05:21;;;;;;;1.90;1.40;;;;;;;18.67;100.00;99995.80;104923;1262;60111;-51
2023/09/20 01:07:50;;;;;;;2.50;1.20;;;;;;;18.66;100.00;99997.48;104771;1256;60010;-50
2023/09/20 01:10:22;;;;;;;1.00;0.90;;;;;;;18.66;100.00;99994.81;105450;1259;75288;-52
2023/09/20 01:12:55;;;;;;;1.80;0.90;;;;;;;18.65;100.00;99996.14;104644;1257;65503;-48
2023/09/20 01:15:22;;;;;;;3.50;1.30;;;;;;;18.65;100.00;99997.97;104879;1257;72757;-49
2023/09/20 01:17:54;;;;;;;4.40;1.10;;;;;;;18.63;100.00;99998.45;104453;1257;60418;-48
2023/09/20 01:20:24;;;;;;;3.80;1.00;;;;;;;18.63;100.00;100002.86;108792;1256;59368;-51
2023/09/20 01:22:54;;;;;;;1.50;0.90;;;;;;;18.62;100.00;100007.48;108786;1256;73026;-50
2023/09/20 01:25:39;;;;;;;3.00;0.80;;;;;;;18.61;100.00;100011.03;108649;1256;67441;-51
2023/09/20 01:28:08;;;;;;;1.60;0.90;;;;;;;18.60;100.00;100011.83;108745;1256;72686;-53
2023/09/20 01:30:36;;;;;;;2.20;0.80;;;;;;;18.60;100.00;100011.63;108777;1257;60125;-53
2023/09/20 01:33:06;;;;;;;2.60;0.70;;;;;;;18.59;100.00;100009.34;108648;1256;60056;-52
2023/09/20 01:35:36;;;;;;;1.10;0.70;;;;;;;18.59;100.00;100008.45;108659;1257;71847;-53
2023/09/20 01:38:07;;;;;;;1.20;0.90;;;;;;;18.59;100.00;100008.77;108668;1256;65698;-53
2023/09/20 01:40:35;;;;;;;1.00;0.90;;;;;;;18.60;100.00;100012.91;108681;1256;72692;-53
2023/09/20 01:43:06;;;;;;;1.40;0.80;;;;;;;18.61;100.00;100013.20;108790;1256;60508;-52
2023/09/20 01:45:35;;;;;;;1.40;0.60;;;;;;;18.61;100.00;100011.19;108754;1255;59243;-53
2023/09/20 01:48:08;;;;;;;1.60;0.70;;;;;;;18.61;100.00;100012.63;108643;1256;73366;-53
2023/09/20 01:50:37;;;;;;;1.50;0.90;;;;;;;18.60;100.00;100011.61;108749;1256;67401;-52
2023/09/20 01:53:08;;;;;;;1.20;0.70;;;;;;;18.60;100.00;100015.27;108665;1256;71353;-52
2023/09/20 01:55:42;;;;;;;1.30;0.90;;;;;;;18.60;100.00;100012.56;108653;1257;58978;-52
2023/09/20 01:58:12;;;;;;;1.70;0.90;;;;;;;18.60;100.00;100011.40;107117;1259;60154;-52
2023/09/20 02:00:41;;;;;;;3.40;0.90;;;;;;;18.60;100.00;100008.58;105479;1263;71911;-51
2023/09/20 02:03:13;;;;;;;3.00;0.80;;;;;;;18.59;100.00;100008.58;105845;1257;66999;-51
2023/09/20 02:05:44;;;;;;;3.40;1.00;;;;;;;18.59;100.00;100003.56;105996;1256;71410;-53
2023/09/20 02:08:11;;;;;;;1.10;1.00;;;;;;;18.58;100.00;100006.34;104709;1259;60550;-51
2023/09/20 02:10:39;;;;;;;1.40;0.90;;;;;;;18.57;100.00;100006.04;104431;1262;62262;-52
2023/09/20 02:13:07;;;;;;;1.50;0.80;;;;;;;18.56;100.00;100006.10;104726;1256;72675;-52
2023/09/20 02:15:35;;;;;;;0.80;0.80;;;;;;;18.53;100.00;100003.38;104859;1263;66953;-51
2023/09/20 02:18:05;;;;;;;1.30;0.80;;;;;;;18.52;100.00;100004.74;104661;1256;72402;-53
2023/09/20 02:20:39;;;;;;;1.80;0.90;;;;;;;18.50;100.00;100006.34;105871;1256;60384;-52
2023/09/20 02:23:12;;;;;;;1.80;0.90;;;;;;;18.48;100.00;100006.85;104647;1256;60453;-51
2023/09/20 02:25:42;;;;;;;1.00;0.90;;;;;;;18.46;100.00;100000.15;104998;1256;73886;-52
2023/09/20 02:28:10;;;;;;;5.90;1.20;;;;;;;18.44;100.00;100002.64;105037;1261;66716;-51
2023/09/20 02:30:38;;;;;;;0.70;0.70;;;;;;;18.42;100.00;99999.73;104869;1260;71486;-53
2023/09/20 02:33:07;;;;;;;1.40;1.30;;;;;;;18.39;100.00;99999.73;105352;1259;60506;-51
2023/09/20 02:35:39;;;;;;;1.00;0.90;;;;;;;18.36;100.00;100005.30;104906;1259;60493;-52
2023/09/20 02:38:09;;;;;;;3.10;1.10;;;;;;;18.32;100.00;100005.96;104666;1256;73967;-51
2023/09/20 02:40:37;;;;;;;1.20;0.90;;;;;;;18.27;100.00;100004.14;105041;1258;68486;-50
2023/09/20 02:43:09;;;;;;;1.20;1.00;;;;;;;18.22;100.00;100000.84;105079;1262;72660;-52
2023/09/20 02:45:39;;;;;;;2.30;1.10;;;;;;;18.16;100.00;100000.40;104552;1257;60622;-51
2023/09/20 02:48:07;;;;;;;1.50;1.10;;;;;;;18.10;100.00;99998.36;104580;1262;62689;-52
2023/09/20 02:50:35;;;;;;;2.30;1.00;;;;;;;18.03;100.00;99996.89;104726;1257;72621;-53
2023/09/20 02:53:05;;;;;;;1.10;0.90;;;;;;;17.96;100.00;99998.33;104640;1256;65802;-51
2023/09/20 02:55:34;;;;;;;2.20;1.40;;;;;;;17.88;100.00;99996.56;104749;1256;72684;-52
2023/09/20 02:58:01;;;;;;;1.00;0.90;;;;;;;17.81;100.00;99992.20;104578;1257;61176;-51
2023/09/20 03:00:31;;;;;;;2.90;1.10;;;;;;;17.75;100.00;99993.59;104833;1257;60708;-52
2023/09/20 03:03:01;;;;;;;1.00;0.90;;;;;;;17.67;100.00;99986.69;104760;1256;72623;-53
2023/09/20 03:05:31;;;;;;;1.50;0.90;;;;;;;17.61;100.00;99983.84;105220;1256;65180;-50
2023/09/20 03:08:01;;;;;;;0.90;0.80;;;;;;;17.56;100.00;99984.20;104621;1260;72707;-50
2023/09/20 03:10:31;;;;;;;3.30;0.90;;;;;;;17.50;100.00;99979.00;104680;1264;60496;-50
2023/09/20 03:12:59;;;;;;;4.10;1.00;;;;;;;17.46;100.00;99979.84;104449;1256;60656;-50
2023/09/20 03:15:28;;;;;;;3.00;1.20;;;;;;;17.41;100.00;99976.98;105411;1256;72728;-52
2023/09/20 03:17:57;;;;;;;1.30;1.20;;;;;;;17.35;100.00;99975.70;105133;1256;65831;-52
2023/09/20 03:20:26;;;;;;;4.50;1.60;;;;;;;17.29;100.00;99974.72;104408;1255;72815;-53
2023/09/20 03:23:03;;;;;;;3.50;1.30;;;;;;;17.23;100.00;99971.95;104883;1261;60470;-53
2023/09/20 03:25:36;;;;;;;3.00;1.40;;;;;;;17.16;100.00;99969.37;105076;1262;60429;-53
2023/09/20 03:28:24;;;;;;;1.10;1.00;;;;;;;17.07;100.00;99970.72;104606;1256;76033;-52
2023/09/20 03:30:53;;;;;;;4.70;1.90;;;;;;;16.98;100.00;99976.42;104870;1261;65658;-53
2023/09/20 03:33:21;;;;;;;2.80;1.10;;;;;;;16.91;100.00;99974.27;104649;1262;72432;-52
2023/09/20 03:35:49;;;;;;;3.20;1.00;;;;;;;16.84;100.00;99977.48;105286;1256;60518;-52
2023/09/20 03:38:17;;;;;;;1.30;1.10;;;;;;;16.77;100.00;99977.39;104936;1253;60511;-52
2023/09/20 03:40:45;;;;;;;4.90;1.20;;;;;;;16.72;100.00;99985.38;106365;1253;72623;-52
2023/09/20 03:43:12;;;;;;;4.50;1.20;;;;;;;16.68;100.00;99986.38;104723;1258;65537;-52
2023/09/20 03:45:45;;;;;;;4.80;1.20;;;;;;;16.63;100.00;99987.45;104779;1256;71979;-51
2023/09/20 03:48:15;;;;;;;1.40;1.00;;;;;;;16.60;100.00;99981.08;107510;1254;60484;-51
2023/09/20 03:50:45;;;;;;;1.30;0.90;;;;;;;16.58;100.00;99977.06;104904;1260;60424;-51
2023/09/20 03:53:13;;;;;;;4.20;1.10;;;;;;;16.56;100.00;99980.48;105835;1253;73892;-52
2023/09/20 03:55:46;;;;;;;1.60;1.00;;;;;;;16.54;100.00;99978.09;105418;1253;67336;-51
2023/09/20 03:58:13;;;;;;;1.60;1.10;;;;;;;16.52;100.00;99977.27;104775;1255;71512;-52
2023/09/20 04:00:42;;;;;;;2.00;1.70;;;;;;;16.52;100.00;99977.52;105231;1253;60733;-52
2023/09/20 04:03:11;;;;;;;1.20;1.10;;;;;;;16.50;100.00;99978.56;105171;1257;60586;-52
2023/09/20 04:05:39;;;;;;;1.80;1.10;;;;;;;16.49;100.00;99982.28;106129;1254;72565;-51
2023/09/20 04:08:16;;;;;;;3.00;1.30;;;;;;;16.46;100.00;99976.48;105536;1258;65996;-51
2023/09/20 04:10:45;;;;;;;3.30;1.10;;;;;;;16.44;100.00;99984.19;105409;1253;71514;-50
2023/09/20 04:13:14;;;;;;;1.40;1.20;;;;;;;16.43;100.00;99984.45;104879;1252;61773;-51
2023/09/20 04:15:42;;;;;;;1.80;1.20;;;;;;;16.42;100.00;99986.36;107907;1257;61106;-52
2023/09/20 04:18:12;;;;;;;2.30;1.10;;;;;;;16.41;100.00;99987.37;104763;1253;72633;-51
2023/09/20 04:20:45;;;;;;;1.30;0.90;;;;;;;16.39;100.00;99984.72;108909;1253;64531;-52
2023/09/20 04:23:14;;;;;;;2.00;1.00;;;;;;;16.39;100.00;99984.41;108800;1256;73188;-52
2023/09/20 04:25:42;;;;;;;3.00;0.80;;;;;;;16.39;100.00;99985.12;108824;1253;60504;-52
2023/09/20 04:28:10;;;;;;;3.20;1.00;;;;;;;16.40;100.00;99987.59;108946;1252;59108;-51
2023/09/20 04:30:38;;;;;;;1.30;1.00;;;;;;;16.41;100.00;99983.52;109046;1253;73890;-51
2023/09/20 04:33:10;;;;;;;1.70;0.90;;;;;;;16.42;100.00;99985.98;108923;1252;66893;-52
2023/09/20 04:35:40;;;;;;;1.00;0.90;;;;;;;16.44;100.00;99985.48;108891;1252;73314;-52
2023/09/20 04:38:11;;;;;;;4.50;0.80;;;;;;;16.45;100.00;99982.14;108763;1260;62161;-52
2023/09/20 04:40:39;;;;;;;1.40;1.00;;;;;;;16.47;100.00;99981.86;108906;1252;58239;-51
2023/09/20 04:43:06;;;;;;;1.30;1.00;;;;;;;16.49;100.00;99980.59;109054;1257;72632;-51
2023/09/20 04:45:34;;;;;;;1.10;1.00;;;;;;;16.52;100.00;99982.74;108916;1252;66705;-52
2023/09/20 04:48:02;;;;;;;1.10;0.90;;;;;;;16.54;100.00;99980.06;108973;1253;72720;-51
2023/09/20 04:50:30;;;;;;;3.10;1.10;;;;;;;16.58;100.00;99981.23;109002;1252;60405;-52
2023/09/20 04:52:58;;;;;;;2.00;0.80;;;;;;;16.61;100.00;99980.87;108912;1252;60551;-52
2023/09/20 04:55:27;;;;;;;1.90;0.90;;;;;;;16.63;100.00;99980.38;108975;1253;74032;-52
2023/09/20 04:57:55;;;;;;;2.00;1.10;;;;;;;16.68;100.00;99980.80;108246;1254;70269;-51
2023/09/20 05:00:33;;;;;;;1.80;1.20;;;;;;;16.70;100.00;99982.81;105067;1257;71396;-51
2023/09/20 05:03:00;;;;;;;2.70;1.00;;;;;;;16.72;100.00;99983.73;104844;1258;60553;-50
2023/09/20 05:05:29;;;;;;;1.00;0.80;;;;;;;16.75;100.00;99983.20;105607;1258;60530;-51
2023/09/20 05:07:57;;;;;;;1.20;1.10;;;;;;;16.78;100.00;99980.97;105749;1258;73886;-51
2023/09/20 05:10:25;;;;;;;0.90;0.80;;;;;;;16.81;100.00;99981.66;105416;1253;65237;-50
2023/09/20 05:12:53;;;;;;;1.00;0.90;;;;;;;16.84;100.00;99978.38;105369;1256;71438;-50
2023/09/20 05:15:23;;;;;;;1.10;1.00;;;;;;;16.85;100.00;99978.61;104875;1258;60483;-50
2023/09/20 05:17:51;;;;;;;1.10;1.00;;;;;;;16.88;100.00;99981.87;105217;1252;60592;-52
2023/09/20 05:20:20;;;;;;;2.80;1.10;;;;;;;16.91;100.00;99979.52;105689;1260;74003;-52
2023/09/20 05:22:47;;;;;;;2.40;1.00;;;;;;;16.92;100.00;99978.14;104851;1261;67485;-51
2023/09/20 05:25:15;;;;;;;1.40;1.00;;;;;;;16.94;100.00;99975.08;104754;1258;73389;-51
2023/09/20 05:27:44;;;;;;;3.80;1.00;;;;;;;16.96;100.00;99970.77;104993;1252;60647;-51
2023/09/20 05:30:13;;;;;;;1.60;0.80;;;;;;;16.99;100.00;99975.30;104845;1260;60560;-52
2023/09/20 05:32:40;;;;;;;1.80;1.00;;;;;;;17.00;100.00;99974.84;104975;1253;73896;-52
2023/09/20 05:35:09;;;;;;;1.30;1.10;;;;;;;17.03;100.00;99979.20;105009;1257;66953;-51
2023/09/20 05:37:38;;;;;;;1.20;0.80;;;;;;;17.06;100.00;99975.88;104802;1253;75181;-52
2023/09/20 05:40:17;;;;;;;0.90;0.80;;;;;;;17.10;100.00;99978.16;105514;1253;61435;-52
2023/09/20 05:42:46;;;;;;;1.20;1.00;;;;;;;17.14;100.00;99980.23;104974;1259;60519;-51
2023/09/20 05:45:13;;;;;;;2.20;0.90;;;;;;;17.18;100.00;99984.09;105089;1253;73895;-51
2023/09/20 05:47:44;;;;;;;2.70;0.90;;;;;;;17.22;100.00;99979.99;105578;1253;65727;-52
2023/09/20 05:50:14;;;;;;;1.10;0.80;;;;;;;17.26;100.00;99982.95;104934;1256;73007;-52
2023/09/20 05:52:45;;;;;;;6.10;1.30;;;;;;;17.31;100.00;99979.14;105133;1257;60483;-52
2023/09/20 05:55:15;;;;;;;1.10;0.90;;;;;;;17.35;100.00;99977.71;105382;1253;60569;-53
2023/09/20 05:57:43;;;;;;;3.00;1.30;;;;;;;17.39;100.00;99970.55;105095;1252;72701;-52
2023/09/20 06:00:16;;;;;;;1.90;1.00;;;;;;;17.43;100.00;99975.03;105068;1257;66987;-55
2023/09/20 06:02:44;;;;;;;2.90;0.90;;;;;;;17.46;100.00;99975.87;105450;1253;73266;-52
2023/09/20 06:05:12;;;;;;;1.20;0.90;;;;;;;17.48;100.00;99978.27;104927;1253;62172;-53
2023/09/20 06:07:40;;;;;;;2.40;1.20;;;;;;;17.52;100.00;99977.85;104857;1253;60447;-54
2023/09/20 06:10:07;;;;;;;2.50;0.90;;;;;;;17.55;100.00;99977.17;104871;1253;74282;-54
2023/09/20 06:12:35;;;;;;;1.60;1.20;;;;;;;17.60;100.00;99975.57;104917;1258;66875;-53
2023/09/20 06:15:04;;;;;;;1.60;0.90;;;;;;;17.65;100.00;99978.64;105403;1256;72741;-53
2023/09/20 06:17:32;;;;;;;1.60;0.80;;;;;;;17.71;100.00;99981.45;105124;1253;60563;-53
2023/09/20 06:20:00;;;;;;;2.80;0.80;;;;;;;17.78;100.00;99981.32;105055;1253;60483;-53
2023/09/20 06:22:28;;;;;;;1.60;1.10;;;;;;;17.85;100.00;99983.92;104834;1253;73936;-53
2023/09/20 06:24:59;;;;;;;1.30;1.00;;;;;;;17.92;100.00;99991.17;104902;1253;65647;-52
2023/09/20 06:27:32;;;;;;;2.30;1.20;;;;;;;17.99;100.00;99992.45;105015;1252;74863;-53
2023/09/20 06:30:05;;;;;;;5.20;0.90;;;;;;;18.05;100.00;99997.05;104954;1257;60444;-52
2023/09/20 06:32:33;;;;;;;3.40;1.10;;;;;;;18.12;100.00;99997.67;105117;1255;60470;-52
2023/09/20 06:35:05;;;;;;;3.10;1.10;;;;;;;18.16;100.00;100002.25;104799;1253;73917;-53
2023/09/20 06:37:34;;;;;;;5.00;1.20;;;;;;;18.21;100.00;99997.31;105140;1257;67421;-51
2023/09/20 06:40:02;;;;;;;3.00;1.10;;;;;;;18.26;100.00;99997.17;104785;1253;71471;-53
2023/09/20 06:42:30;;;;;;;3.70;1.10;;;;;;;18.30;100.00;100001.70;104761;1253;62619;-52
2023/09/20 06:44:57;;;;;;;2.10;0.90;;;;;;;18.35;100.00;100005.13;104734;1254;61384;-55
2023/09/20 06:47:25;;;;;;;1.50;0.90;;;;;;;18.41;100.00;100003.27;104958;1260;72817;-53
2023/09/20 06:49:53;;;;;;;1.40;1.10;;;;;;;18.47;100.00;100007.84;105297;1259;65858;-51
2023/09/20 06:52:20;;;;;;;2.70;1.10;;;;;;;18.54;100.00;100007.30;104987;1259;71048;-52
2023/09/20 06:54:48;;;;;;;5.40;1.00;;;;;;;18.61;100.00;100003.35;104891;1254;60463;-53
2023/09/20 06:57:18;;;;;;;1.10;1.00;;;;;;;18.69;100.00;100006.90;104949;1259;60424;-53
2023/09/20 06:59:46;;;;;;;1.30;1.20;;;;;;;18.77;100.00;100011.55;105429;1253;72668;-53
2023/09/20 07:02:16;;;;;;;3.60;1.30;;;;;;;18.83;100.00;100011.25;105074;1253;66930;-52
2023/09/20 07:04:44;;;;;;;2.30;1.30;;;;;;;18.89;100.00;100011.11;105976;1255;71501;-53
2023/09/20 07:07:12;;;;;;;3.60;1.20;;;;;;;18.96;100.00;100013.34;104683;1256;60628;-53
2023/09/20 07:09:40;;;;;;;3.20;1.00;;;;;;;19.02;100.00;100015.23;105059;1259;60426;-54
2023/09/20 07:12:07;;;;;;;2.00;1.00;;;;;;;19.07;100.00;100013.39;104905;1254;74004;-53
2023/09/20 07:14:35;;;;;;;3.80;0.90;;;;;;;19.11;100.00;100015.20;104995;1253;66920;-53
2023/09/20 07:17:07;;;;;;;2.30;1.10;;;;;;;19.17;100.00;100015.51;104780;1257;72932;-51
2023/09/20 07:19:36;;;;;;;1.90;1.20;;;;;;;19.22;100.00;100014.48;109060;1253;58850;-52
2023/09/20 07:22:05;;;;;;;1.10;1.00;;;;;;;19.29;100.00;100012.50;109083;1252;58911;-53
2023/09/20 07:24:35;;;;;;;1.20;1.10;;;;;;;19.35;100.00;100012.60;109084;1253;73977;-53
2023/09/20 07:27:03;;;;;;;1.30;1.10;;;;;;;19.40;100.00;100011.98;109134;1253;66915;-52
2023/09/20 07:29:34;;;;;;;1.10;1.00;;;;;;;19.45;100.00;100009.73;108958;1254;71429;-53
2023/09/20 07:32:04;;;;;;;1.60;1.50;;;;;;;19.51;100.00;100014.02;109046;1253;59632;-53
2023/09/20 07:34:35;;;;;;;1.00;0.90;;;;;;;19.57;100.00;100014.63;109066;1252;60355;-53
2023/09/20 07:37:03;;;;;;;2.50;1.20;;;;;;;19.63;100.00;100015.04;109090;1252;74276;-53
2023/09/20 07:39:30;;;;;;;2.70;1.00;;;;;;;19.68;100.00;100021.04;109182;1253;67378;-52
2023/09/20 07:41:58;;;;;;;1.20;1.00;;;;;;;19.72;100.00;100017.83;109107;1253;73125;-52
2023/09/20 07:44:30;;;;;;;2.70;0.90;;;;;;;19.76;100.00;100021.30;106590;1255;60553;-53
2023/09/20 07:46:58;;;;;;;6.30;1.10;;;;;;;19.80;100.00;100023.14;109015;1252;58637;-51
2023/09/20 07:49:25;;;;;;;1.50;1.20;;;;;;;19.84;100.00;100025.52;108851;1252;73889;-52
2023/09/20 07:51:54;;;;;;;5.50;1.50;;;;;;;19.87;100.00;100026.17;108944;1254;65809;-53
2023/09/20 07:54:21;;;;;;;3.30;1.10;;;;;;;19.92;100.00;100025.02;109189;1252;72667;-52
2023/09/20 07:56:52;;;;;;;3.50;1.00;;;;;;;19.97;100.00;100023.13;105855;1257;60646;-52
2023/09/20 07:59:25;;;;;;;1.80;1.50;;;;;;;20.01;100.00;100029.17;108823;1253;58854;-52
2023/09/20 08:01:54;;;;;;;2.60;1.10;;;;;;;20.03;100.00;100027.70;105105;1253;72565;-52
2023/09/20 08:04:23;;;;;;;2.40;1.10;;;;;;;20.04;100.00;100027.69;105779;1256;66866;-54
2023/09/20 08:06:50;;;;;;;1.60;1.30;;;;;;;20.03;100.00;100030.14;104690;1256;71454;-52
2023/09/20 08:09:18;;;;;;;1.50;1.10;;;;;;;20.02;100.00;100031.98;105720;1259;60397;-52
2023/09/20 08:11:46;;;;;;;1.60;1.00;;;;;;;20.01;100.00;100037.02;104886;1253;60438;-52
2023/09/20 08:14:14;;;;;;;1.80;1.10;;;;;;;19.99;100.00;100042.98;107171;1254;72659;-52
2023/09/20 08:16:42;;;;;;;1.10;1.00;;;;;;;19.96;100.00;100042.88;105514;1253;66857;-51
2023/09/20 08:19:31;;;;;;;2.40;1.30;;;;;;;19.91;100.00;100042.41;105150;1256;73364;-52
2023/09/20 08:21:58;;;;;;;2.00;0.90;;;;;;;19.88;100.00;100041.05;104998;1259;61894;-52
2023/09/20 09:00:31;;;;;;;3.00;1.60;;;;;;;19.74;100.00;100050.41;105159;1258;72755;-52
2023/09/20 09:03:03;;;;;;;1.30;1.20;;;;;;;19.75;100.00;100048.48;105286;1255;61327;-54
2023/09/20 09:05:31;;;;;;;2.00;1.50;;;;;;;19.75;100.00;100045.54;105482;1253;60525;-52
2023/09/20 09:08:00;;;;;;;1.50;1.40;;;;;;;19.77;100.00;100046.34;108527;1253;73788;-54
2023/09/20 09:10:28;;;;;;;5.70;1.50;;;;;;;19.77;100.00;100044.87;105421;1257;67923;-52
2023/09/20 09:12:55;;;;;;;1.80;1.60;;;;;;;19.79;100.00;100043.09;105068;1256;72727;-52
2023/09/20 09:15:25;;;;;;;1.90;1.40;;;;;;;19.80;100.00;100042.60;104965;1261;61087;-52
2023/09/20 09:17:53;;;;;;;1.80;1.20;;;;;;;19.82;100.00;100042.48;107652;1253;60550;-52
2023/09/20 09:20:23;;;;;;;2.80;1.10;;;;;;;19.84;100.00;100041.14;105200;1259;76985;-50
2023/09/20 09:22:51;;;;;;;3.50;1.40;;;;;;;19.88;100.00;100043.03;105236;1257;67181;-50
2023/09/20 09:25:20;;;;;;;4.50;1.40;;;;;;;19.92;100.00;100041.45;105862;1258;71162;-52
2023/09/20 09:27:47;;;;;;;4.60;1.20;;;;;;;19.95;100.00;100040.84;105039;1253;60538;-52
2023/09/20 09:30:16;;;;;;;1.70;1.60;;;;;;;19.97;100.00;100044.09;105172;1257;60392;-51
2023/09/20 09:32:46;;;;;;;2.30;1.40;;;;;;;19.98;100.00;100044.00;105164;1253;73112;-53
2023/09/20 09:35:19;;;;;;;2.90;2.00;;;;;;;20.00;100.00;100049.68;109010;1253;66908;-53
2023/09/20 09:37:50;;;;;;;3.10;1.30;;;;;;;20.01;100.00;100049.73;107654;1259;73331;-51
2023/09/20 09:40:18;;;;;;;1.40;1.20;;;;;;;20.03;100.00;100049.76;104833;1259;60529;-52
2023/09/20 09:42:46;;;;;;;1.40;1.30;;;;;;;20.04;100.00;100048.45;105516;1259;59676;-52
2023/09/20 09:45:28;;;;;;;1.40;1.30;;;;;;;20.06;100.00;100046.49;105614;1253;72611;-52
2023/09/20 09:47:59;;;;;;;3.90;1.20;;;;;;;20.10;100.00;100046.69;105011;1261;66330;-52
2023/09/20 09:50:32;;;;;;;2.40;1.40;;;;;;;20.15;100.00;100047.13;105492;1257;71786;-52
2023/09/20 09:52:59;;;;;;;3.70;1.60;;;;;;;20.23;100.00;100049.95;105829;1258;62405;-53
2023/09/20 09:55:27;;;;;;;2.40;1.40;;;;;;;20.29;100.00;100051.23;104744;1260;60334;-52
2023/09/20 09:57:54;;;;;;;2.90;1.60;;;;;;;20.36;100.00;100049.92;104670;1254;72821;-53
2023/09/20 10:00:24;;;;;;;3.80;2.10;;;;;;;20.44;100.00;100047.33;109007;1252;66797;-52
2023/09/20 10:02:51;;;;;;;2.30;1.40;;;;;;;20.47;100.00;100049.39;106420;1256;72871;-52
2023/09/20 10:05:20;;;;;;;1.80;1.30;;;;;;;20.51;100.00;100050.89;105068;1254;61146;-51
2023/09/20 10:07:48;;;;;;;2.20;1.60;;;;;;;20.57;100.00;100049.52;106263;1253;176758;-53
2023/09/20 10:11:57;;;;;;;4.30;1.20;;;;;;;20.62;100.00;100077.10;101947;1295;600427;-50
2023/09/20 10:14:24;;;;;;;2.60;1.20;;;;;;;20.67;100.00;100073.95;103868;1273;60484;-52
2023/09/20 10:16:52;;;;;;;2.60;1.40;;;;;;;20.71;100.00;100065.73;104787;1266;59311;-51
2023/09/20 10:19:19;;;;;;;1.60;1.50;;;;;;;20.76;100.00;100065.52;103895;1268;70998;-54
2023/09/20 10:21:59;;;;;;;2.10;1.10;;;;;;;20.79;100.00;100063.95;104245;1271;66126;-53
2023/09/20 10:24:28;;;;;;;2.40;1.70;;;;;;;20.82;100.00;100061.96;104012;1270;112046;-52
2023/09/20 10:27:02;;;;;;;2.00;1.60;;;;;;;20.81;100.00;100059.25;104241;1267;60079;-51
2023/09/20 10:29:32;;;;;;;5.00;1.90;;;;;;;20.80;100.00;100061.37;108478;1264;58839;-53
2023/09/20 10:32:13;;;;;;;2.00;1.30;;;;;;;20.79;100.00;100058.67;108394;1263;72884;-53
2023/09/20 10:34:41;;;;;;;2.60;1.60;;;;;;;20.81;100.00;100058.73;108410;1264;67047;-54
2023/09/20 10:37:10;;;;;;;4.50;1.60;;;;;;;20.84;100.00;100060.23;108161;1267;72887;-53
2023/09/20 10:39:38;;;;;;;1.60;1.50;;;;;;;20.88;100.00;100060.84;108411;1264;60491;-53
2023/09/20 10:42:09;;;;;;;2.50;1.70;;;;;;;20.92;100.00;100057.23;108447;1263;59039;-54
2023/09/20 10:44:41;;;;;;;1.90;1.30;;;;;;;20.95;100.00;100053.83;108385;1263;74246;-54
2023/09/20 10:47:13;;;;;;;1.80;1.40;;;;;;;21.00;100.00;100049.73;108346;1263;67691;-54
2023/09/20 10:49:47;;;;;;;1.40;1.30;;;;;;;21.08;100.00;100050.12;108363;1267;71468;-54
2023/09/20 10:52:30;;;;;;;2.60;1.60;;;;;;;21.18;100.00;100047.49;108451;1263;60116;-52
2023/09/20 10:55:22;;;;;;;7.20;1.70;;;;;;;21.29;100.00;100048.53;108327;1264;60252;-54
2023/09/20 10:57:50;;;;;;;4.80;1.40;;;;;;;21.39;100.00;100045.25;105652;1264;76850;-52
2023/09/20 11:00:30;;;;;;;2.00;1.70;;;;;;;21.46;100.00;100040.55;104368;1264;65697;-52
2023/09/20 11:02:59;;;;;;;2.50;1.70;;;;;;;21.54;100.00;100042.59;104354;1264;71501;-53
2023/09/20 11:05:28;;;;;;;3.50;1.80;;;;;;;21.61;100.00;100041.06;104314;1267;59861;-52
2023/09/20 11:07:57;;;;;;;3.60;1.60;;;;;;;21.66;100.00;100041.18;105225;1266;59154;-52
2023/09/20 11:10:25;;;;;;;3.80;1.90;;;;;;;21.72;100.00;100041.05;104432;1260;73698;-52
2023/09/20 11:12:55;;;;;;;6.90;1.80;;;;;;;21.75;100.00;100035.39;104188;1264;65639;-52
2023/09/20 11:15:23;;;;;;;2.70;1.40;;;;;;;21.81;100.00;100033.08;104501;1267;72611;-53
2023/09/20 11:17:51;;;;;;;2.30;1.80;;;;;;;21.87;100.00;100037.42;104519;1260;60761;-55
2023/09/20 11:20:19;;;;;;;1.60;1.20;;;;;;;21.95;100.00;100035.32;106616;1269;62024;-53
2023/09/20 11:22:49;;;;;;;5.20;1.40;;;;;;;22.00;100.00;100028.80;104090;1266;72204;-53
2023/09/20 11:25:16;;;;;;;3.20;1.40;;;;;;;22.05;100.00;100029.43;104740;1266;65690;-53
2023/09/20 11:27:44;;;;;;;2.70;1.20;;;;;;;22.10;100.00;100032.63;104068;1267;73164;-53
2023/09/20 11:30:12;;;;;;;1.30;1.20;;;;;;;22.16;100.00;100031.38;104031;1266;61793;-52
2023/09/20 11:32:40;;;;;;;3.60;1.40;;;;;;;22.23;100.00;100033.44;104824;1260;59676;-55
2023/09/20 11:35:08;;;;;;;6.00;1.20;;;;;;;22.30;100.00;100032.98;104394;1266;73552;-55
2023/09/20 11:37:35;;;;;;;2.90;1.30;;;;;;;22.35;100.00;100031.44;104239;1269;66074;-53
2023/09/20 11:40:04;;;;;;;1.90;1.40;;;;;;;22.38;100.00;100034.40;104462;1260;72838;-52
2023/09/20 11:42:34;;;;;;;3.90;1.80;;;;;;;22.43;100.00;100029.98;104768;1260;60126;-50
2023/09/20 11:45:08;;;;;;;3.90;1.60;;;;;;;22.47;100.00;100031.73;104544;1266;59252;-51
2023/09/20 11:47:42;;;;;;;1.70;1.40;;;;;;;22.52;100.00;100031.80;104488;1267;73906;-53
2023/09/20 11:50:14;;;;;;;3.30;1.70;;;;;;;22.54;100.00;100034.04;105283;1264;65842;-51
2023/09/20 11:52:44;;;;;;;1.70;1.50;;;;;;;22.53;100.00;100039.03;104981;1257;74007;-53
2023/09/20 11:55:12;;;;;;;2.20;1.50;;;;;;;22.52;100.00;100042.59;104570;1264;59806;-53
2023/09/20 11:57:46;;;;;;;3.90;2.30;;;;;;;22.50;100.00;100038.73;104619;1262;60070;-53
2023/09/20 12:00:27;;;;;;;3.50;1.90;;;;;;;22.48;100.00;100040.10;106876;1260;73001;-53